sensor_id;sensor_type;location;lat;lon;timestamp;temperature;humidity
19363;DHT22;9817;50.80926400;5.16316200;2023-05-29T00:00:18;16.60;99.90
19363;DHT22;9817;50.80926400;5.16316200;2023-05-29T00:02:46;16.60;99.90
19363;DHT22;9817;50.80926400;5.16316200;2023-05-29T00:05:12;16.50;99.90
19363;DHT22;9817;50.80926400;5.16316200;2023-05-29T00:07:39;16.50;99.90
19363;DHT22;9817;50.80926400;5.16316200;2023-05-29T00:10:06;16.50;99.90
19363;DHT22;9817;50.80926400;5.16316200;2023-05-29T00:12:32;16.50;99.90
19363;DHT22;9817;50.80926400;5.16316200;2023-05-29T00:14:58;16.40;99.90
19363;DHT22;9817;50.80926400;5.16316200;2023-05-29T00:17:23;16.40;99.90
19363;DHT22;9817;50.80926400;5.16316200;2023-05-29T00:19:50;16.40;99.90
19363;DHT22;9817;50.80926400;5.16316200;2023-05-29T00:22:15;16.30;99.90
19363;DHT22;9817;50.80926400;5.16316200;2023-05-29T00:24:41;16.30;99.90
19363;DHT22;9817;50.80926400;5.16316200;2023-05-29T00:27:07;16.30;99.90
19363;DHT22;9817;50.80926400;5.16316200;2023-05-29T00:29:34;16.30;99.90
19363;DHT22;9817;50.80926400;5.16316200;2023-05-29T00:32:01;16.10;99.90
19363;DHT22;9817;50.80926400;5.16316200;2023-05-29T00:34:27;16.10;99.90
19363;DHT22;9817;50.80926400;5.16316200;2023-05-29T00:36:52;16.10;99.90
19363;DHT22;9817;50.80926400;5.16316200;2023-05-29T00:39:20;16.00;99.90
19363;DHT22;9817;50.80926400;5.16316200;2023-05-29T00:41:45;16.00;99.90
19363;DHT22;9817;50.80926400;5.16316200;2023-05-29T00:44:11;16.00;99.90
19363;DHT22;9817;50.80926400;5.16316200;2023-05-29T00:46:36;15.90;99.90
19363;DHT22;9817;50.80926400;5.16316200;2023-05-29T00:49:04;16.00;99.90
19363;DHT22;9817;50.80926400;5.16316200;2023-05-29T00:51:31;16.00;99.90
19363;DHT22;9817;50.80926400;5.16316200;2023-05-29T00:53:57;16.00;99.90
19363;DHT22;9817;50.80926400;5.16316200;2023-05-29T00:56:23;15.90;99.90
19363;DHT22;9817;50.80926400;5.16316200;2023-05-29T00:58:50;15.70;99.90
19363;DHT22;9817;50.80926400;5.16316200;2023-05-29T01:01:17;15.70;99.90
19363;DHT22;9817;50.80926400;5.16316200;2023-05-29T01:03:44;15.70;99.90
19363;DHT22;9817;50.80926400;5.16316200;2023-05-29T01:06:10;15.70;99.90
19363;DHT22;9817;50.80926400;5.16316200;2023-05-29T01:08:36;15.70;99.90
19363;DHT22;9817;50.80926400;5.16316200;2023-05-29T01:11:12;15.60;99.90
19363;DHT22;9817;50.80926400;5.16316200;2023-05-29T01:13:41;15.50;99.90
19363;DHT22;9817;50.80926400;5.16316200;2023-05-29T01:16:13;15.50;99.90
19363;DHT22;9817;50.80926400;5.16316200;2023-05-29T01:18:54;15.40;99.90
19363;DHT22;9817;50.80926400;5.16316200;2023-05-29T01:29:27;15.20;99.90
19363;DHT22;9817;50.80926400;5.16316200;2023-05-29T01:31:54;15.10;99.90
19363;DHT22;9817;50.80926400;5.16316200;2023-05-29T01:34:21;15.00;99.90
19363;DHT22;9817;50.80926400;5.16316200;2023-05-29T01:36:46;14.90;99.90
19363;DHT22;9817;50.80926400;5.16316200;2023-05-29T01:39:12;14.80;99.90
19363;DHT22;9817;50.80926400;5.16316200;2023-05-29T01:41:38;14.80;99.90
19363;DHT22;9817;50.80926400;5.16316200;2023-05-29T01:44:06;14.70;99.90
19363;DHT22;9817;50.80926400;5.16316200;2023-05-29T01:46:37;14.70;99.90
19363;DHT22;9817;50.80926400;5.16316200;2023-05-29T01:49:03;14.80;99.90
19363;DHT22;9817;50.80926400;5.16316200;2023-05-29T01:51:29;14.70;99.90
19363;DHT22;9817;50.80926400;5.16316200;2023-05-29T01:53:57;14.50;99.90
19363;DHT22;9817;50.80926400;5.16316200;2023-05-29T01:56:24;14.40;99.90
19363;DHT22;9817;50.80926400;5.16316200;2023-05-29T01:58:53;14.40;99.90
19363;DHT22;9817;50.80926400;5.16316200;2023-05-29T02:01:21;14.40;99.90
19363;DHT22;9817;50.80926400;5.16316200;2023-05-29T02:03:46;14.40;99.90
19363;DHT22;9817;50.80926400;5.16316200;2023-05-29T02:06:12;14.40;99.90
19363;DHT22;9817;50.80926400;5.16316200;2023-05-29T02:08:37;14.30;99.90
19363;DHT22;9817;50.80926400;5.16316200;2023-05-29T02:11:03;14.40;99.90
19363;DHT22;9817;50.80926400;5.16316200;2023-05-29T02:13:29;14.40;99.90
19363;DHT22;9817;50.80926400;5.16316200;2023-05-29T02:15:54;14.40;99.90
19363;DHT22;9817;50.80926400;5.16316200;2023-05-29T02:18:20;14.20;99.90
19363;DHT22;9817;50.80926400;5.16316200;2023-05-29T02:20:46;14.10;99.90
19363;DHT22;9817;50.80926400;5.16316200;2023-05-29T02:23:12;14.10;99.90
19363;DHT22;9817;50.80926400;5.16316200;2023-05-29T02:25:38;14.10;99.90
19363;DHT22;9817;50.80926400;5.16316200;2023-05-29T02:28:05;14.10;99.90
19363;DHT22;9817;50.80926400;5.16316200;2023-05-29T02:30:31;14.20;99.90
19363;DHT22;9817;50.80926400;5.16316200;2023-05-29T02:32:56;14.10;99.90
19363;DHT22;9817;50.80926400;5.16316200;2023-05-29T02:35:22;14.10;99.90
19363;DHT22;9817;50.80926400;5.16316200;2023-05-29T02:37:49;14.20;99.90
19363;DHT22;9817;50.80926400;5.16316200;2023-05-29T02:40:16;14.10;99.90
19363;DHT22;9817;50.80926400;5.16316200;2023-05-29T02:42:42;14.00;99.90
19363;DHT22;9817;50.80926400;5.16316200;2023-05-29T02:45:08;13.90;99.90
19363;DHT22;9817;50.80926400;5.16316200;2023-05-29T02:47:33;13.90;99.90
19363;DHT22;9817;50.80926400;5.16316200;2023-05-29T02:49:59;13.90;99.90
19363;DHT22;9817;50.80926400;5.16316200;2023-05-29T02:52:24;13.90;99.90
19363;DHT22;9817;50.80926400;5.16316200;2023-05-29T02:54:50;13.90;99.90
19363;DHT22;9817;50.80926400;5.16316200;2023-05-29T02:57:16;14.00;99.90
19363;DHT22;9817;50.80926400;5.16316200;2023-05-29T02:59:41;13.90;99.90
19363;DHT22;9817;50.80926400;5.16316200;2023-05-29T03:02:09;13.80;99.90
19363;DHT22;9817;50.80926400;5.16316200;2023-05-29T03:04:35;13.80;99.90
19363;DHT22;9817;50.80926400;5.16316200;2023-05-29T03:07:00;13.60;99.90
19363;DHT22;9817;50.80926400;5.16316200;2023-05-29T03:09:26;13.60;99.90
19363;DHT22;9817;50.80926400;5.16316200;2023-05-29T03:11:51;13.50;99.90
19363;DHT22;9817;50.80926400;5.16316200;2023-05-29T03:14:18;13.60;99.90
19363;DHT22;9817;50.80926400;5.16316200;2023-05-29T03:16:44;13.70;99.90
19363;DHT22;9817;50.80926400;5.16316200;2023-05-29T03:19:10;13.60;99.90
19363;DHT22;9817;50.80926400;5.16316200;2023-05-29T03:21:36;13.60;99.90
19363;DHT22;9817;50.80926400;5.16316200;2023-05-29T03:24:02;13.60;99.90
19363;DHT22;9817;50.80926400;5.16316200;2023-05-29T03:26:28;13.60;99.90
19363;DHT22;9817;50.80926400;5.16316200;2023-05-29T03:28:54;13.50;99.90
19363;DHT22;9817;50.80926400;5.16316200;2023-05-29T03:31:20;13.50;99.90
19363;DHT22;9817;50.80926400;5.16316200;2023-05-29T03:33:47;13.50;99.90
19363;DHT22;9817;50.80926400;5.16316200;2023-05-29T03:36:13;13.50;99.90
19363;DHT22;9817;50.80926400;5.16316200;2023-05-29T03:38:39;13.20;99.90
19363;DHT22;9817;50.80926400;5.16316200;2023-05-29T03:41:05;13.20;99.90
19363;DHT22;9817;50.80926400;5.16316200;2023-05-29T03:43:30;13.30;99.90
19363;DHT22;9817;50.80926400;5.16316200;2023-05-29T03:45:56;13.10;99.90
19363;DHT22;9817;50.80926400;5.16316200;2023-05-29T03:48:21;13.10;99.90
19363;DHT22;9817;50.80926400;5.16316200;2023-05-29T03:50:47;13.10;99.90
19363;DHT22;9817;50.80926400;5.16316200;2023-05-29T03:53:13;13.10;99.90
19363;DHT22;9817;50.80926400;5.16316200;2023-05-29T03:55:38;13.00;99.90
19363;DHT22;9817;50.80926400;5.16316200;2023-05-29T03:58:04;13.00;99.90
19363;DHT22;9817;50.80926400;5.16316200;2023-05-29T04:00:30;12.90;99.90
19363;DHT22;9817;50.80926400;5.16316200;2023-05-29T04:02:56;12.90;99.90
19363;DHT22;9817;50.80926400;5.16316200;2023-05-29T04:05:22;12.90;99.90
19363;DHT22;9817;50.80926400;5.16316200;2023-05-29T04:07:47;12.90;99.90
19363;DHT22;9817;50.80926400;5.16316200;2023-05-29T04:10:13;12.90;99.90
19363;DHT22;9817;50.80926400;5.16316200;2023-05-29T04:12:39;12.90;99.90
19363;DHT22;9817;50.80926400;5.16316200;2023-05-29T04:15:05;13.00;99.90
19363;DHT22;9817;50.80926400;5.16316200;2023-05-29T04:17:31;12.90;99.90
19363;DHT22;9817;50.80926400;5.16316200;2023-05-29T04:19:57;13.00;99.90
19363;DHT22;9817;50.80926400;5.16316200;2023-05-29T04:22:22;13.10;99.90
19363;DHT22;9817;50.80926400;5.16316200;2023-05-29T04:24:48;13.00;99.90
19363;DHT22;9817;50.80926400;5.16316200;2023-05-29T04:27:14;13.10;99.90
19363;DHT22;9817;50.80926400;5.16316200;2023-05-29T04:29:41;13.20;99.90
19363;DHT22;9817;50.80926400;5.16316200;2023-05-29T04:32:08;13.20;99.90
19363;DHT22;9817;50.80926400;5.16316200;2023-05-29T04:34:35;13.30;99.90
19363;DHT22;9817;50.80926400;5.16316200;2023-05-29T04:37:02;13.50;99.90
19363;DHT22;9817;50.80926400;5.16316200;2023-05-29T04:39:28;13.50;99.90
19363;DHT22;9817;50.80926400;5.16316200;2023-05-29T04:41:54;13.30;99.90
19363;DHT22;9817;50.80926400;5.16316200;2023-05-29T04:44:24;13.20;99.90
19363;DHT22;9817;50.80926400;5.16316200;2023-05-29T04:46:52;13.20;99.90
19363;DHT22;9817;50.80926400;5.16316200;2023-05-29T04:49:17;13.20;99.90
19363;DHT22;9817;50.80926400;5.16316200;2023-05-29T04:51:43;13.20;99.90
19363;DHT22;9817;50.80926400;5.16316200;2023-05-29T04:54:10;13.20;99.90
19363;DHT22;9817;50.80926400;5.16316200;2023-05-29T04:56:36;13.30;99.90
19363;DHT22;9817;50.80926400;5.16316200;2023-05-29T04:59:02;13.20;99.90
19363;DHT22;9817;50.80926400;5.16316200;2023-05-29T05:01:28;13.20;99.90
19363;DHT22;9817;50.80926400;5.16316200;2023-05-29T05:03:54;13.30;99.90
19363;DHT22;9817;50.80926400;5.16316200;2023-05-29T05:06:23;13.30;99.90
19363;DHT22;9817;50.80926400;5.16316200;2023-05-29T05:08:51;13.30;99.90
19363;DHT22;9817;50.80926400;5.16316200;2023-05-29T05:11:17;13.20;99.90
19363;DHT22;9817;50.80926400;5.16316200;2023-05-29T05:13:43;13.20;99.90
19363;DHT22;9817;50.80926400;5.16316200;2023-05-29T05:16:09;13.30;99.90
19363;DHT22;9817;50.80926400;5.16316200;2023-05-29T05:18:35;13.40;99.90
19363;DHT22;9817;50.80926400;5.16316200;2023-05-29T05:21:01;13.30;99.90
19363;DHT22;9817;50.80926400;5.16316200;2023-05-29T05:23:28;13.30;99.90
19363;DHT22;9817;50.80926400;5.16316200;2023-05-29T05:25:54;13.20;99.90
19363;DHT22;9817;50.80926400;5.16316200;2023-05-29T05:28:19;13.30;99.90
19363;DHT22;9817;50.80926400;5.16316200;2023-05-29T05:30:45;13.40;99.90
19363;DHT22;9817;50.80926400;5.16316200;2023-05-29T05:33:11;13.50;99.90
19363;DHT22;9817;50.80926400;5.16316200;2023-05-29T05:35:37;13.70;99.90
19363;DHT22;9817;50.80926400;5.16316200;2023-05-29T05:38:02;13.80;99.90
19363;DHT22;9817;50.80926400;5.16316200;2023-05-29T05:40:28;13.80;99.90
19363;DHT22;9817;50.80926400;5.16316200;2023-05-29T05:42:54;13.60;99.90
19363;DHT22;9817;50.80926400;5.16316200;2023-05-29T05:45:19;13.70;99.90
19363;DHT22;9817;50.80926400;5.16316200;2023-05-29T05:47:46;14.00;99.90
19363;DHT22;9817;50.80926400;5.16316200;2023-05-29T05:50:12;14.10;99.90
19363;DHT22;9817;50.80926400;5.16316200;2023-05-29T05:52:38;14.30;99.90
19363;DHT22;9817;50.80926400;5.16316200;2023-05-29T05:55:04;14.30;99.90
19363;DHT22;9817;50.80926400;5.16316200;2023-05-29T05:57:29;14.20;99.90
19363;DHT22;9817;50.80926400;5.16316200;2023-05-29T05:59:58;14.50;99.90
19363;DHT22;9817;50.80926400;5.16316200;2023-05-29T06:02:23;14.60;99.90
19363;DHT22;9817;50.80926400;5.16316200;2023-05-29T06:04:49;14.60;99.90
19363;DHT22;9817;50.80926400;5.16316200;2023-05-29T06:07:15;14.50;99.90
19363;DHT22;9817;50.80926400;5.16316200;2023-05-29T06:09:40;14.60;99.90
19363;DHT22;9817;50.80926400;5.16316200;2023-05-29T06:12:07;15.00;99.90
19363;DHT22;9817;50.80926400;5.16316200;2023-05-29T06:14:34;15.60;99.90
19363;DHT22;9817;50.80926400;5.16316200;2023-05-29T06:17:00;16.20;99.90
19363;DHT22;9817;50.80926400;5.16316200;2023-05-29T06:19:26;16.30;99.90
19363;DHT22;9817;50.80926400;5.16316200;2023-05-29T06:21:52;16.30;99.90
19363;DHT22;9817;50.80926400;5.16316200;2023-05-29T06:24:17;16.00;99.90
19363;DHT22;9817;50.80926400;5.16316200;2023-05-29T06:26:43;15.70;99.90
19363;DHT22;9817;50.80926400;5.16316200;2023-05-29T06:29:09;15.80;99.90
19363;DHT22;9817;50.80926400;5.16316200;2023-05-29T06:31:34;15.70;99.90
19363;DHT22;9817;50.80926400;5.16316200;2023-05-29T06:34:00;15.70;99.90
19363;DHT22;9817;50.80926400;5.16316200;2023-05-29T06:36:26;15.80;99.90
19363;DHT22;9817;50.80926400;5.16316200;2023-05-29T06:38:51;16.00;99.90
19363;DHT22;9817;50.80926400;5.16316200;2023-05-29T06:41:17;16.10;99.90
19363;DHT22;9817;50.80926400;5.16316200;2023-05-29T06:43:43;16.20;99.90
19363;DHT22;9817;50.80926400;5.16316200;2023-05-29T06:46:10;16.10;99.90
19363;DHT22;9817;50.80926400;5.16316200;2023-05-29T06:48:36;16.10;99.90
19363;DHT22;9817;50.80926400;5.16316200;2023-05-29T06:51:04;16.00;99.90
19363;DHT22;9817;50.80926400;5.16316200;2023-05-29T06:53:37;16.00;99.90
19363;DHT22;9817;50.80926400;5.16316200;2023-05-29T06:56:04;15.90;99.90
19363;DHT22;9817;50.80926400;5.16316200;2023-05-29T06:58:30;16.00;99.90
19363;DHT22;9817;50.80926400;5.16316200;2023-05-29T07:01:05;16.00;99.90
19363;DHT22;9817;50.80926400;5.16316200;2023-05-29T07:03:31;16.00;99.90
19363;DHT22;9817;50.80926400;5.16316200;2023-05-29T07:05:57;16.10;99.90
19363;DHT22;9817;50.80926400;5.16316200;2023-05-29T07:08:23;16.10;99.90
19363;DHT22;9817;50.80926400;5.16316200;2023-05-29T07:10:49;16.30;99.90
19363;DHT22;9817;50.80926400;5.16316200;2023-05-29T07:13:16;16.40;99.90
19363;DHT22;9817;50.80926400;5.16316200;2023-05-29T07:15:42;16.60;99.90
19363;DHT22;9817;50.80926400;5.16316200;2023-05-29T07:18:07;16.90;99.90
19363;DHT22;9817;50.80926400;5.16316200;2023-05-29T07:20:33;16.90;99.90
19363;DHT22;9817;50.80926400;5.16316200;2023-05-29T07:22:59;16.80;99.90
19363;DHT22;9817;50.80926400;5.16316200;2023-05-29T07:25:25;16.80;99.90
19363;DHT22;9817;50.80926400;5.16316200;2023-05-29T07:27:51;16.90;99.90
19363;DHT22;9817;50.80926400;5.16316200;2023-05-29T07:30:17;17.00;99.90
19363;DHT22;9817;50.80926400;5.16316200;2023-05-29T07:32:43;17.40;99.90
19363;DHT22;9817;50.80926400;5.16316200;2023-05-29T07:35:09;18.00;99.90
19363;DHT22;9817;50.80926400;5.16316200;2023-05-29T07:37:35;19.70;99.90
19363;DHT22;9817;50.80926400;5.16316200;2023-05-29T07:40:01;22.10;99.90
19363;DHT22;9817;50.80926400;5.16316200;2023-05-29T07:42:26;24.30;99.90
19363;DHT22;9817;50.80926400;5.16316200;2023-05-29T07:44:52;26.60;99.70
19363;DHT22;9817;50.80926400;5.16316200;2023-05-29T07:47:18;27.90;94.40
19363;DHT22;9817;50.80926400;5.16316200;2023-05-29T07:49:43;28.70;91.70
19363;DHT22;9817;50.80926400;5.16316200;2023-05-29T07:52:09;28.60;89.00
19363;DHT22;9817;50.80926400;5.16316200;2023-05-29T07:54:35;28.40;86.90
19363;DHT22;9817;50.80926400;5.16316200;2023-05-29T07:57:00;28.10;86.10
19363;DHT22;9817;50.80926400;5.16316200;2023-05-29T07:59:28;29.10;84.40
19363;DHT22;9817;50.80926400;5.16316200;2023-05-29T08:01:55;30.30;81.70
19363;DHT22;9817;50.80926400;5.16316200;2023-05-29T08:04:24;31.20;78.70
19363;DHT22;9817;50.80926400;5.16316200;2023-05-29T08:06:50;30.80;76.90
19363;DHT22;9817;50.80926400;5.16316200;2023-05-29T08:09:16;32.10;74.20
19363;DHT22;9817;50.80926400;5.16316200;2023-05-29T08:11:43;32.30;69.60
19363;DHT22;9817;50.80926400;5.16316200;2023-05-29T08:14:11;32.20;68.80
19363;DHT22;9817;50.80926400;5.16316200;2023-05-29T08:16:37;32.20;68.10
19363;DHT22;9817;50.80926400;5.16316200;2023-05-29T08:19:02;32.40;67.00
19363;DHT22;9817;50.80926400;5.16316200;2023-05-29T08:21:32;32.20;65.90
19363;DHT22;9817;50.80926400;5.16316200;2023-05-29T08:23:58;33.40;64.70
19363;DHT22;9817;50.80926400;5.16316200;2023-05-29T08:26:24;33.90;63.60
19363;DHT22;9817;50.80926400;5.16316200;2023-05-29T08:28:49;33.10;63.50
19363;DHT22;9817;50.80926400;5.16316200;2023-05-29T08:31:16;33.10;63.10
19363;DHT22;9817;50.80926400;5.16316200;2023-05-29T08:33:41;33.40;62.10
19363;DHT22;9817;50.80926400;5.16316200;2023-05-29T08:36:07;33.20;61.30
19363;DHT22;9817;50.80926400;5.16316200;2023-05-29T08:38:34;33.70;59.40
19363;DHT22;9817;50.80926400;5.16316200;2023-05-29T08:41:00;33.30;60.20
19363;DHT22;9817;50.80926400;5.16316200;2023-05-29T08:43:30;33.60;60.80
19363;DHT22;9817;50.80926400;5.16316200;2023-05-29T08:45:59;33.40;59.80
19363;DHT22;9817;50.80926400;5.16316200;2023-05-29T08:48:27;32.40;61.60
19363;DHT22;9817;50.80926400;5.16316200;2023-05-29T08:50:55;31.90;62.20
19363;DHT22;9817;50.80926400;5.16316200;2023-05-29T08:53:22;32.70;61.40
19363;DHT22;9817;50.80926400;5.16316200;2023-05-29T08:55:49;33.50;61.10
19363;DHT22;9817;50.80926400;5.16316200;2023-05-29T08:58:22;34.00;58.70
19363;DHT22;9817;50.80926400;5.16316200;2023-05-29T09:00:48;33.00;59.60
19363;DHT22;9817;50.80926400;5.16316200;2023-05-29T09:03:14;32.70;60.00
19363;DHT22;9817;50.80926400;5.16316200;2023-05-29T09:05:40;32.40;60.50
19363;DHT22;9817;50.80926400;5.16316200;2023-05-29T09:08:10;32.30;60.20
19363;DHT22;9817;50.80926400;5.16316200;2023-05-29T09:10:39;31.60;61.70
19363;DHT22;9817;50.80926400;5.16316200;2023-05-29T09:13:05;31.30;62.80
19363;DHT22;9817;50.80926400;5.16316200;2023-05-29T09:15:31;31.50;62.50
19363;DHT22;9817;50.80926400;5.16316200;2023-05-29T09:17:57;31.90;61.40
19363;DHT22;9817;50.80926400;5.16316200;2023-05-29T09:20:25;31.30;61.00
19363;DHT22;9817;50.80926400;5.16316200;2023-05-29T09:23:05;30.40;63.20
19363;DHT22;9817;50.80926400;5.16316200;2023-05-29T09:25:33;30.10;63.20
19363;DHT22;9817;50.80926400;5.16316200;2023-05-29T09:28:01;31.20;64.20
19363;DHT22;9817;50.80926400;5.16316200;2023-05-29T09:30:39;32.30;63.30
19363;DHT22;9817;50.80926400;5.16316200;2023-05-29T09:33:09;32.60;59.80
19363;DHT22;9817;50.80926400;5.16316200;2023-05-29T09:35:36;32.10;59.40
19363;DHT22;9817;50.80926400;5.16316200;2023-05-29T09:38:03;30.70;61.70
19363;DHT22;9817;50.80926400;5.16316200;2023-05-29T09:40:39;29.80;64.80
19363;DHT22;9817;50.80926400;5.16316200;2023-05-29T09:43:15;29.10;65.20
19363;DHT22;9817;50.80926400;5.16316200;2023-05-29T09:45:47;29.70;65.20
19363;DHT22;9817;50.80926400;5.16316200;2023-05-29T09:48:17;29.70;65.80
19363;DHT22;9817;50.80926400;5.16316200;2023-05-29T09:50:44;29.60;64.00
19363;DHT22;9817;50.80926400;5.16316200;2023-05-29T09:53:24;29.70;66.40
19363;DHT22;9817;50.80926400;5.16316200;2023-05-29T09:55:51;30.10;66.70
19363;DHT22;9817;50.80926400;5.16316200;2023-05-29T09:58:21;31.30;64.40
19363;DHT22;9817;50.80926400;5.16316200;2023-05-29T10:00:48;31.30;63.50
19363;DHT22;9817;50.80926400;5.16316200;2023-05-29T10:03:14;31.20;64.10
19363;DHT22;9817;50.80926400;5.16316200;2023-05-29T10:05:41;30.90;64.40
19363;DHT22;9817;50.80926400;5.16316200;2023-05-29T10:08:15;30.80;64.10
19363;DHT22;9817;50.80926400;5.16316200;2023-05-29T10:10:44;31.30;64.20
19363;DHT22;9817;50.80926400;5.16316200;2023-05-29T10:13:13;30.60;65.00
19363;DHT22;9817;50.80926400;5.16316200;2023-05-29T10:15:43;30.00;65.50
19363;DHT22;9817;50.80926400;5.16316200;2023-05-29T10:18:20;29.30;64.60
19363;DHT22;9817;50.80926400;5.16316200;2023-05-29T10:20:52;29.40;67.10
19363;DHT22;9817;50.80926400;5.16316200;2023-05-29T10:23:21;29.20;67.30
19363;DHT22;9817;50.80926400;5.16316200;2023-05-29T10:25:53;28.70;68.10
19363;DHT22;9817;50.80926400;5.16316200;2023-05-29T10:28:20;28.00;68.80
19363;DHT22;9817;50.80926400;5.16316200;2023-05-29T10:30:53;27.70;69.60
19363;DHT22;9817;50.80926400;5.16316200;2023-05-29T10:38:32;25.70;74.30
19363;DHT22;9817;50.80926400;5.16316200;2023-05-29T10:43:58;24.90;77.60
19363;DHT22;9817;50.80926400;5.16316200;2023-05-29T10:49:19;24.30;79.90
19363;DHT22;9817;50.80926400;5.16316200;2023-05-29T10:51:45;24.20;80.90
19363;DHT22;9817;50.80926400;5.16316200;2023-05-29T10:54:12;24.10;79.20
19363;DHT22;9817;50.80926400;5.16316200;2023-05-29T10:56:39;24.10;82.00
19363;DHT22;9817;50.80926400;5.16316200;2023-05-29T10:59:07;24.20;82.20
19363;DHT22;9817;50.80926400;5.16316200;2023-05-29T11:01:33;24.10;82.10
19363;DHT22;9817;50.80926400;5.16316200;2023-05-29T11:06:48;24.00;83.90
19363;DHT22;9817;50.80926400;5.16316200;2023-05-29T11:12:29;24.30;82.90
19363;DHT22;9817;50.80926400;5.16316200;2023-05-29T11:15:09;24.50;81.90
19363;DHT22;9817;50.80926400;5.16316200;2023-05-29T11:20:06;24.40;81.80
19363;DHT22;9817;50.80926400;5.16316200;2023-05-29T11:25:25;24.60;80.70
19363;DHT22;9817;50.80926400;5.16316200;2023-05-29T11:27:50;24.60;80.50
19363;DHT22;9817;50.80926400;5.16316200;2023-05-29T11:30:21;24.80;81.30
19363;DHT22;9817;50.80926400;5.16316200;2023-05-29T11:32:48;24.80;82.50
19363;DHT22;9817;50.80926400;5.16316200;2023-05-29T11:35:14;24.70;80.50
19363;DHT22;9817;50.80926400;5.16316200;2023-05-29T11:37:41;24.60;80.60
19363;DHT22;9817;50.80926400;5.16316200;2023-05-29T11:40:11;24.80;81.10
19363;DHT22;9817;50.80926400;5.16316200;2023-05-29T11:42:46;24.70;79.50
19363;DHT22;9817;50.80926400;5.16316200;2023-05-29T11:45:20;24.40;80.70
19363;DHT22;9817;50.80926400;5.16316200;2023-05-29T11:47:53;24.50;81.80
19363;DHT22;9817;50.80926400;5.16316200;2023-05-29T11:50:23;24.70;80.20
19363;DHT22;9817;50.80926400;5.16316200;2023-05-29T11:52:49;24.80;79.70
19363;DHT22;9817;50.80926400;5.16316200;2023-05-29T11:55:17;24.90;79.50
19363;DHT22;9817;50.80926400;5.16316200;2023-05-29T11:57:44;24.50;82.90
19363;DHT22;9817;50.80926400;5.16316200;2023-05-29T12:00:15;24.10;82.50
19363;DHT22;9817;50.80926400;5.16316200;2023-05-29T12:02:42;24.10;83.00
19363;DHT22;9817;50.80926400;5.16316200;2023-05-29T12:05:09;24.50;82.30
19363;DHT22;9817;50.80926400;5.16316200;2023-05-29T12:07:36;24.60;81.70
19363;DHT22;9817;50.80926400;5.16316200;2023-05-29T12:12:37;25.10;81.40
19363;DHT22;9817;50.80926400;5.16316200;2023-05-29T12:15:05;25.30;81.10
19363;DHT22;9817;50.80926400;5.16316200;2023-05-29T12:17:32;25.50;83.50
19363;DHT22;9817;50.80926400;5.16316200;2023-05-29T12:19:58;25.40;79.70
19363;DHT22;9817;50.80926400;5.16316200;2023-05-29T12:22:36;25.00;81.00
19363;DHT22;9817;50.80926400;5.16316200;2023-05-29T12:25:14;25.00;80.50
19363;DHT22;9817;50.80926400;5.16316200;2023-05-29T12:27:45;25.10;82.80
19363;DHT22;9817;50.80926400;5.16316200;2023-05-29T12:32:45;25.20;82.90
19363;DHT22;9817;50.80926400;5.16316200;2023-05-29T12:37:43;25.20;80.60
19363;DHT22;9817;50.80926400;5.16316200;2023-05-29T12:40:18;25.10;84.00
19363;DHT22;9817;50.80926400;5.16316200;2023-05-29T12:42:44;25.20;83.80
19363;DHT22;9817;50.80926400;5.16316200;2023-05-29T12:45:10;24.80;82.40
19363;DHT22;9817;50.80926400;5.16316200;2023-05-29T12:47:36;25.00;80.30
19363;DHT22;9817;50.80926400;5.16316200;2023-05-29T12:50:25;24.90;81.60
19363;DHT22;9817;50.80926400;5.16316200;2023-05-29T12:53:09;24.90;84.70
19363;DHT22;9817;50.80926400;5.16316200;2023-05-29T12:55:39;25.00;82.80
19363;DHT22;9817;50.80926400;5.16316200;2023-05-29T12:58:13;25.20;81.50
19363;DHT22;9817;50.80926400;5.16316200;2023-05-29T13:00:42;25.20;83.70
19363;DHT22;9817;50.80926400;5.16316200;2023-05-29T13:03:08;25.20;83.90
19363;DHT22;9817;50.80926400;5.16316200;2023-05-29T13:05:34;25.40;84.10
19363;DHT22;9817;50.80926400;5.16316200;2023-05-29T13:08:01;25.40;83.00
19363;DHT22;9817;50.80926400;5.16316200;2023-05-29T13:10:27;24.90;81.80
19363;DHT22;9817;50.80926400;5.16316200;2023-05-29T13:12:54;24.90;80.80
19363;DHT22;9817;50.80926400;5.16316200;2023-05-29T13:15:23;25.10;82.50
19363;DHT22;9817;50.80926400;5.16316200;2023-05-29T13:17:49;25.10;83.20
19363;DHT22;9817;50.80926400;5.16316200;2023-05-29T13:20:16;25.10;82.70
19363;DHT22;9817;50.80926400;5.16316200;2023-05-29T13:22:43;25.00;83.40
19363;DHT22;9817;50.80926400;5.16316200;2023-05-29T13:25:12;25.00;84.60
19363;DHT22;9817;50.80926400;5.16316200;2023-05-29T13:27:41;25.10;83.20
19363;DHT22;9817;50.80926400;5.16316200;2023-05-29T13:30:08;24.80;82.10
19363;DHT22;9817;50.80926400;5.16316200;2023-05-29T13:32:34;24.70;83.70
19363;DHT22;9817;50.80926400;5.16316200;2023-05-29T13:35:00;24.70;85.20
19363;DHT22;9817;50.80926400;5.16316200;2023-05-29T13:37:26;24.70;85.00
19363;DHT22;9817;50.80926400;5.16316200;2023-05-29T13:39:53;24.60;84.30
19363;DHT22;9817;50.80926400;5.16316200;2023-05-29T13:42:19;24.30;85.00
19363;DHT22;9817;50.80926400;5.16316200;2023-05-29T13:44:45;24.40;86.10
19363;DHT22;9817;50.80926400;5.16316200;2023-05-29T13:47:11;24.40;83.60
19363;DHT22;9817;50.80926400;5.16316200;2023-05-29T13:49:36;24.50;82.50
19363;DHT22;9817;50.80926400;5.16316200;2023-05-29T13:52:03;24.30;84.50
19363;DHT22;9817;50.80926400;5.16316200;2023-05-29T13:54:29;24.50;84.50
19363;DHT22;9817;50.80926400;5.16316200;2023-05-29T13:57:04;24.50;84.60
19363;DHT22;9817;50.80926400;5.16316200;2023-05-29T13:59:34;24.60;84.90
19363;DHT22;9817;50.80926400;5.16316200;2023-05-29T14:02:00;24.70;85.80
19363;DHT22;9817;50.80926400;5.16316200;2023-05-29T14:04:28;24.70;82.30
19363;DHT22;9817;50.80926400;5.16316200;2023-05-29T14:06:53;24.70;84.60
19363;DHT22;9817;50.80926400;5.16316200;2023-05-29T14:09:20;24.60;86.00
19363;DHT22;9817;50.80926400;5.16316200;2023-05-29T14:11:53;24.60;85.00